JES3170 SAZN-SABE
Flight info
| Callsign | JES3170 |
|---|---|
| Flight time | N/A |
| Altitude | 37000 |
| Route | NIDBA DCT ISMIL UT655 ASADA |
| Aircraft | A320/M-SDGIRWY/E |
Departure
| Time | 2026-05-08 22:02 |
|---|---|
| Airport | Presidente Perón International Airport (SAZN) |
Arrival
| Time | N/A |
|---|---|
| Airport | Aeroparque Jorge Newbery (SABE) |
| Time | Latitude | Longitude | Altitude | Speed | Heading |
|---|---|---|---|---|---|
| 2026-05-08 21:32 | -38.95158 | -68.14069 | 906 ft | 0 kts | 180° |
| 2026-05-08 21:53 | -38.95145 | -68.14069 | 907 ft | 4 kts | 179° |
| 2026-05-08 21:53 | -38.95118 | -68.14071 | 908 ft | 4 kts | 168° |
| 2026-05-08 21:54 | -38.95097 | -68.14083 | 904 ft | 4 kts | 105° |
| 2026-05-08 21:54 | -38.95095 | -68.14111 | 904 ft | 2 kts | 91° |
| 2026-05-08 21:54 | -38.95095 | -68.14113 | 904 ft | 0 kts | 91° |
| 2026-05-08 22:00 | -38.95095 | -68.14083 | 904 ft | 7 kts | 91° |
| 2026-05-08 22:00 | -38.95096 | -68.14000 | 906 ft | 11 kts | 85° |
| 2026-05-08 22:00 | -38.95041 | -68.13988 | 904 ft | 8 kts | 322° |
| 2026-05-08 22:00 | -38.95029 | -68.14003 | 904 ft | 1 kts | 314° |
| 2026-05-08 22:01 | -38.95007 | -68.14032 | 904 ft | 8 kts | 314° |
| 2026-05-08 22:01 | -38.94962 | -68.14091 | 907 ft | 10 kts | 315° |
| 2026-05-08 22:01 | -38.94906 | -68.14144 | 909 ft | 10 kts | 315° |
| 2026-05-08 22:01 | -38.94903 | -68.14202 | 905 ft | 5 kts | 270° |
| 2026-05-08 22:02 | -38.94903 | -68.14508 | 904 ft | 71 kts | 270° |
| 2026-05-08 22:02 | -38.94901 | -68.15411 | 904 ft | 127 kts | 270° |
| 2026-05-08 22:02 | -38.94903 | -68.16729 | 1021 ft | 158 kts | 270° |
| 2026-05-08 22:02 | -38.94908 | -68.18102 | 1696 ft | 154 kts | 264° |
| 2026-05-08 22:03 | -38.94906 | -68.19484 | 2311 ft | 158 kts | 260° |
| 2026-05-08 22:03 | -38.94907 | -68.20978 | 2632 ft | 180 kts | 261° |
| 2026-05-08 22:03 | -38.94910 | -68.22696 | 2945 ft | 203 kts | 261° |
| 2026-05-08 22:03 | -38.94910 | -68.24614 | 3415 ft | 223 kts | 262° |
| 2026-05-08 22:04 | -38.94899 | -68.26637 | 4255 ft | 229 kts | 262° |
| 2026-05-08 22:04 | -38.94883 | -68.28707 | 5156 ft | 233 kts | 262° |
| 2026-05-08 22:04 | -38.94566 | -68.30830 | 5920 ft | 258 kts | 292° |
| 2026-05-08 22:04 | -38.93276 | -68.32508 | 6798 ft | 276 kts | 331° |
| 2026-05-08 22:05 | -38.91409 | -68.33024 | 7627 ft | 279 kts | 9° |
| 2026-05-08 22:05 | -38.89651 | -68.32160 | 8493 ft | 269 kts | 46° |
| 2026-05-08 22:05 | -38.88595 | -68.30300 | 9371 ft | 254 kts | 76° |
| 2026-05-08 22:05 | -38.87974 | -68.28098 | 9895 ft | 273 kts | 78° |
| 2026-05-08 22:06 | -38.87331 | -68.25722 | 10444 ft | 288 kts | 78° |
| 2026-05-08 22:06 | -38.86663 | -68.23263 | 11188 ft | 295 kts | 78° |
| 2026-05-08 22:06 | -38.85978 | -68.20757 | 11963 ft | 302 kts | 77° |
| 2026-05-08 22:06 | -38.85270 | -68.18183 | 12741 ft | 308 kts | 77° |
| 2026-05-08 22:07 | -38.84556 | -68.15602 | 13497 ft | 314 kts | 77° |
| 2026-05-08 22:07 | -38.83818 | -68.12942 | 14262 ft | 319 kts | 78° |
| 2026-05-08 22:07 | -38.83113 | -68.10186 | 14665 ft | 335 kts | 80° |
| 2026-05-08 22:07 | -38.82443 | -68.07217 | 14891 ft | 356 kts | 81° |
| 2026-05-08 22:08 | -38.81780 | -68.04119 | 15461 ft | 364 kts | 81° |
| 2026-05-08 22:08 | -38.81106 | -68.00967 | 16178 ft | 369 kts | 81° |
| 2026-05-08 22:08 | -38.80415 | -67.97775 | 16904 ft | 374 kts | 81° |
| 2026-05-08 22:08 | -38.79705 | -67.94552 | 17613 ft | 378 kts | 81° |
| 2026-05-08 22:09 | -38.78982 | -67.91299 | 18333 ft | 382 kts | 81° |
| 2026-05-08 22:09 | -38.78245 | -67.88007 | 18978 ft | 386 kts | 81° |
| 2026-05-08 22:09 | -38.77499 | -67.84694 | 19643 ft | 389 kts | 81° |
| 2026-05-08 22:09 | -38.76744 | -67.81350 | 20347 ft | 392 kts | 81° |
| 2026-05-08 22:10 | -38.75984 | -67.77984 | 21066 ft | 395 kts | 81° |
| 2026-05-08 22:10 | -38.75208 | -67.74547 | 21768 ft | 398 kts | 81° |
| 2026-05-08 22:10 | -38.74436 | -67.71133 | 22442 ft | 401 kts | 81° |
| 2026-05-08 22:10 | -38.73667 | -67.67741 | 23108 ft | 404 kts | 80° |
| 2026-05-08 22:11 | -38.72879 | -67.64279 | 23778 ft | 407 kts | 80° |
| 2026-05-08 22:11 | -38.72084 | -67.60776 | 24332 ft | 410 kts | 81° |
| 2026-05-08 22:11 | -38.71173 | -67.57272 | 24856 ft | 420 kts | 73° |
| 2026-05-08 22:11 | -38.69871 | -67.53879 | 25359 ft | 429 kts | 69° |
| 2026-05-08 22:12 | -38.68484 | -67.50473 | 25878 ft | 433 kts | 69° |
| 2026-05-08 22:12 | -38.67078 | -67.47039 | 26397 ft | 437 kts | 69° |
| 2026-05-08 22:12 | -38.65654 | -67.43575 | 26911 ft | 442 kts | 68° |
| 2026-05-08 22:12 | -38.64212 | -67.40080 | 27419 ft | 446 kts | 68° |
| 2026-05-08 22:13 | -38.62756 | -67.36555 | 27941 ft | 450 kts | 68° |
| 2026-05-08 22:13 | -38.61289 | -67.33003 | 28455 ft | 454 kts | 68° |
| 2026-05-08 22:13 | -38.59807 | -67.29417 | 28954 ft | 458 kts | 68° |
| 2026-05-08 22:13 | -38.58313 | -67.25796 | 29449 ft | 462 kts | 68° |
| 2026-05-08 22:14 | -38.56827 | -67.22200 | 29937 ft | 465 kts | 68° |
| 2026-05-08 22:14 | -38.55304 | -67.18523 | 30377 ft | 468 kts | 68° |
| 2026-05-08 22:14 | -38.53773 | -67.14833 | 30747 ft | 472 kts | 68° |
| 2026-05-08 22:14 | -38.52229 | -67.11117 | 31112 ft | 475 kts | 68° |
| 2026-05-08 22:15 | -38.50681 | -67.07395 | 31553 ft | 475 kts | 68° |
| 2026-05-08 22:15 | -38.49125 | -67.03666 | 32086 ft | 474 kts | 68° |
| 2026-05-08 22:15 | -38.47573 | -66.99951 | 32572 ft | 474 kts | 68° |
| 2026-05-08 22:15 | -38.46021 | -66.96238 | 33044 ft | 475 kts | 67° |
| 2026-05-08 22:16 | -38.44469 | -66.92530 | 33512 ft | 475 kts | 67° |
| 2026-05-08 22:16 | -38.42907 | -66.88799 | 33995 ft | 475 kts | 67° |
| 2026-05-08 22:16 | -38.41351 | -66.85077 | 34402 ft | 475 kts | 67° |
| 2026-05-08 22:16 | -38.39790 | -66.81337 | 34788 ft | 476 kts | 67° |
| 2026-05-08 22:17 | -38.38233 | -66.77611 | 35187 ft | 477 kts | 67° |
| 2026-05-08 22:17 | -38.36665 | -66.73875 | 35551 ft | 478 kts | 67° |
| 2026-05-08 22:17 | -38.35091 | -66.70141 | 35916 ft | 479 kts | 67° |
| 2026-05-08 22:17 | -38.33539 | -66.66460 | 36243 ft | 480 kts | 67° |
| 2026-05-08 22:18 | -38.31954 | -66.62702 | 36588 ft | 481 kts | 66° |
| 2026-05-08 22:18 | -38.30369 | -66.58939 | 36933 ft | 482 kts | 66° |
| 2026-05-08 22:18 | -38.28781 | -66.55176 | 37081 ft | 484 kts | 66° |
| 2026-05-08 22:19 | -38.25577 | -66.47606 | 37104 ft | 486 kts | 66° |
| 2026-05-08 22:19 | -38.22361 | -66.40030 | 37096 ft | 486 kts | 66° |
| 2026-05-08 22:20 | -38.19147 | -66.32469 | 37089 ft | 486 kts | 66° |
| 2026-05-08 22:20 | -38.15917 | -66.24902 | 37083 ft | 486 kts | 66° |
| 2026-05-08 22:21 | -38.12689 | -66.17354 | 37089 ft | 486 kts | 66° |
| 2026-05-08 22:21 | -38.09449 | -66.09803 | 37082 ft | 486 kts | 65° |
| 2026-05-08 22:22 | -38.06197 | -66.02251 | 37081 ft | 486 kts | 65° |
| 2026-05-08 22:22 | -38.02979 | -65.94770 | 37073 ft | 486 kts | 65° |
| 2026-05-08 22:23 | -37.99729 | -65.87227 | 37072 ft | 486 kts | 65° |
| 2026-05-08 22:23 | -37.96481 | -65.79710 | 37061 ft | 486 kts | 65° |
| 2026-05-08 22:24 | -37.93224 | -65.72198 | 37062 ft | 486 kts | 65° |
| 2026-05-08 22:24 | -37.89956 | -65.64687 | 37051 ft | 486 kts | 65° |
| 2026-05-08 22:25 | -37.86689 | -65.57184 | 37049 ft | 486 kts | 64° |
| 2026-05-08 22:25 | -37.83459 | -65.49766 | 37046 ft | 486 kts | 64° |
| 2026-05-08 22:26 | -37.80190 | -65.42291 | 37037 ft | 486 kts | 64° |
| 2026-05-08 22:26 | -37.76899 | -65.34792 | 37029 ft | 486 kts | 64° |
| 2026-05-08 22:27 | -37.73607 | -65.27325 | 37027 ft | 486 kts | 64° |
| 2026-05-08 22:27 | -37.70335 | -65.19905 | 37020 ft | 486 kts | 64° |
| 2026-05-08 22:28 | -37.67041 | -65.12443 | 37018 ft | 486 kts | 64° |
| 2026-05-08 22:28 | -37.63742 | -65.04985 | 37008 ft | 486 kts | 64° |
| 2026-05-08 22:29 | -37.60442 | -64.97541 | 37007 ft | 486 kts | 63° |
| 2026-05-08 22:29 | -37.57135 | -64.90112 | 36997 ft | 486 kts | 63° |
| 2026-05-08 22:30 | -37.53838 | -64.82723 | 36997 ft | 486 kts | 63° |
| 2026-05-08 22:30 | -37.50528 | -64.75315 | 36990 ft | 486 kts | 63° |
| 2026-05-08 22:31 | -37.47204 | -64.67875 | 36985 ft | 486 kts | 63° |
| 2026-05-08 22:31 | -37.43872 | -64.60446 | 36973 ft | 486 kts | 63° |
| 2026-05-08 22:32 | -37.40548 | -64.53084 | 36974 ft | 486 kts | 63° |
| 2026-05-08 22:32 | -37.37750 | -64.46891 | 36965 ft | 486 kts | 63° |
| 2026-05-08 22:33 | -37.33864 | -64.38290 | 36961 ft | 486 kts | 63° |
| 2026-05-08 22:33 | -37.30521 | -64.30893 | 36955 ft | 486 kts | 63° |
| 2026-05-08 22:34 | -37.27193 | -64.23541 | 36950 ft | 486 kts | 62° |
| 2026-05-08 22:34 | -37.23831 | -64.16164 | 36940 ft | 486 kts | 62° |
| 2026-05-08 22:35 | -37.21045 | -64.10050 | 36940 ft | 486 kts | 62° |
| 2026-05-08 22:35 | -37.17688 | -64.02697 | 36932 ft | 486 kts | 62° |
| 2026-05-08 22:36 | -37.14331 | -63.95372 | 36930 ft | 486 kts | 62° |
| 2026-05-08 22:36 | -37.10949 | -63.88027 | 36922 ft | 485 kts | 62° |
| 2026-05-08 22:37 | -37.07579 | -63.80701 | 36919 ft | 485 kts | 62° |
| 2026-05-08 22:37 | -37.04225 | -63.73408 | 36908 ft | 485 kts | 62° |
| 2026-05-08 22:38 | -37.00847 | -63.66098 | 36909 ft | 485 kts | 62° |
| 2026-05-08 22:38 | -36.97454 | -63.58776 | 36900 ft | 485 kts | 62° |
| 2026-05-08 22:39 | -36.94066 | -63.51473 | 36904 ft | 486 kts | 62° |
| 2026-05-08 22:39 | -36.90694 | -63.44215 | 36900 ft | 486 kts | 62° |
| 2026-05-08 22:40 | -36.87286 | -63.36892 | 36899 ft | 486 kts | 62° |
| 2026-05-08 22:40 | -36.83870 | -63.29602 | 36895 ft | 487 kts | 62° |
| 2026-05-08 22:41 | -36.80450 | -63.22295 | 36891 ft | 487 kts | 62° |
| 2026-05-08 22:41 | -36.77027 | -63.14987 | 36890 ft | 488 kts | 62° |
| 2026-05-08 22:42 | -36.73599 | -63.07699 | 36890 ft | 488 kts | 62° |
| 2026-05-08 22:42 | -36.70159 | -63.00399 | 36885 ft | 488 kts | 61° |
| 2026-05-08 22:43 | -36.66714 | -62.93109 | 36885 ft | 488 kts | 61° |
| 2026-05-08 22:43 | -36.63258 | -62.85804 | 36883 ft | 488 kts | 61° |
| 2026-05-08 22:44 | -36.59830 | -62.78575 | 36880 ft | 488 kts | 61° |
| 2026-05-08 22:44 | -36.56372 | -62.71298 | 36880 ft | 488 kts | 61° |
| 2026-05-08 22:45 | -36.52917 | -62.64032 | 36881 ft | 487 kts | 60° |
| 2026-05-08 22:45 | -36.49456 | -62.56793 | 36876 ft | 487 kts | 60° |
| 2026-05-08 22:46 | -36.45980 | -62.49563 | 36877 ft | 486 kts | 60° |
| 2026-05-08 22:46 | -36.42522 | -62.42340 | 36871 ft | 486 kts | 60° |
| 2026-05-08 22:47 | -36.39086 | -62.35175 | 36874 ft | 485 kts | 60° |
| 2026-05-08 22:47 | -36.35625 | -62.27987 | 36870 ft | 485 kts | 59° |
| 2026-05-08 22:48 | -36.32159 | -62.20813 | 36873 ft | 485 kts | 59° |
| 2026-05-08 22:48 | -36.28681 | -62.13632 | 36868 ft | 484 kts | 59° |
| 2026-05-08 22:49 | -36.25211 | -62.06475 | 36882 ft | 484 kts | 59° |
| 2026-05-08 22:49 | -36.20033 | -61.95813 | 36867 ft | 482 kts | 58° |
| 2026-05-08 22:50 | -36.16563 | -61.88698 | 36867 ft | 482 kts | 58° |
| 2026-05-08 22:50 | -36.13108 | -61.81615 | 36864 ft | 481 kts | 58° |
| 2026-05-08 22:51 | -36.09639 | -61.74521 | 36860 ft | 480 kts | 58° |
| 2026-05-08 22:51 | -36.06174 | -61.67443 | 36857 ft | 480 kts | 58° |
| 2026-05-08 22:52 | -36.02739 | -61.60444 | 36854 ft | 479 kts | 57° |
| 2026-05-08 22:52 | -35.99271 | -61.53394 | 36853 ft | 479 kts | 57° |
| 2026-05-08 22:53 | -35.95808 | -61.46372 | 36859 ft | 478 kts | 57° |
| 2026-05-08 22:53 | -35.92339 | -61.39350 | 36848 ft | 478 kts | 57° |
| 2026-05-08 22:54 | -35.88866 | -61.32355 | 36852 ft | 477 kts | 56° |
| 2026-05-08 22:54 | -35.85435 | -61.25448 | 36851 ft | 476 kts | 56° |
| 2026-05-08 22:55 | -35.81967 | -61.18479 | 36853 ft | 476 kts | 56° |
| 2026-05-08 22:55 | -35.78507 | -61.11519 | 36846 ft | 475 kts | 56° |
| 2026-05-08 22:56 | -35.75051 | -61.04586 | 36847 ft | 474 kts | 56° |
| 2026-05-08 22:56 | -35.71610 | -60.97724 | 36839 ft | 473 kts | 55° |
| 2026-05-08 22:57 | -35.68142 | -60.90816 | 36843 ft | 473 kts | 55° |
| 2026-05-08 22:57 | -35.64691 | -60.83943 | 36839 ft | 472 kts | 55° |
| 2026-05-08 22:58 | -35.61245 | -60.77090 | 36836 ft | 471 kts | 55° |
| 2026-05-08 22:58 | -35.57816 | -60.70292 | 36834 ft | 470 kts | 54° |
| 2026-05-08 22:59 | -35.54376 | -60.63477 | 36836 ft | 469 kts | 54° |
| 2026-05-08 22:59 | -35.50936 | -60.56698 | 36843 ft | 468 kts | 54° |
| 2026-05-08 23:00 | -35.47488 | -60.49917 | 36833 ft | 467 kts | 54° |
| 2026-05-08 23:00 | -35.44055 | -60.43157 | 36808 ft | 465 kts | 54° |
| 2026-05-08 23:01 | -35.40622 | -60.36419 | 36825 ft | 465 kts | 53° |
| 2026-05-08 23:01 | -35.37200 | -60.29708 | 36831 ft | 464 kts | 53° |